1867 NOT_NAMED (1867011S11072)


IBTrACS version v04r00. Visit IBTrACS website for data access.
Please direct all questions to the IBTrACS Q and A forum

Storm track - Intensity - Wind Radii - Intensity Data - Source Data - All data

Summary Information

Storm ID 1867011S11072
Start Jan 11 06Z
End Jan 18 06Z
ATCF IDs
Track status Best track data.

Storm track plot

Map of storm track

Intensity plots

No Intensity information for this storm


Radial wind information

No radial wind information for this storm


Position and Intensity Table

BASIN ISO_TIME_________ NATURE LAT LON
degrees north degrees east
SI 1867-01-11 06:00:00 NR -10.80 72.00
SI 09:00:00 NR -10.91 71.89
SI 12:00:00 NR -11.01 71.78
SI 15:00:00 NR -11.12 71.68
SI 18:00:00 NR -11.22 71.59
SI 21:00:00 NR -11.32 71.51
SI 1867-01-12 00:00:00 NR -11.42 71.43
SI 03:00:00 NR -11.53 71.35
SI 06:00:00 NR -11.65 71.25
SI 09:00:00 NR -11.78 71.12
SI 12:00:00 NR -11.93 70.97
SI 15:00:00 NR -12.09 70.81
SI 18:00:00 NR -12.26 70.66
SI 21:00:00 NR -12.45 70.53
SI 1867-01-13 00:00:00 NR -12.64 70.40
SI 03:00:00 NR -12.85 70.27
SI 06:00:00 NR -13.05 70.15
SI 09:00:00 NR -13.25 70.02
SI 12:00:00 NR -13.44 69.90
SI 15:00:00 NR -13.64 69.77
SI 18:00:00 NR -13.85 69.65
SI 21:00:00 NR -14.04 69.53
SI 1867-01-14 00:00:00 NR -14.23 69.42
SI 03:00:00 NR -14.44 69.31
SI 06:00:00 NR -14.70 69.20
SI 09:00:00 NR -14.99 69.06
SI 12:00:00 NR -15.33 68.93
SI 15:00:00 NR -15.68 68.81
SI 18:00:00 NR -15.83 68.76
SI 21:00:00 NR -15.85 68.73
SI 1867-01-15 00:00:00 NR -15.70 68.71
SI 03:00:00 NR -15.29 68.68
SI 06:00:00 NR -15.60 68.60
SI 09:00:00 NR -15.98 68.49
SI 12:00:00 NR -16.41 68.39
SI 15:00:00 NR -16.87 68.31
SI 18:00:00 NR -17.37 68.26
SI 21:00:00 NR -17.89 68.24
SI 1867-01-16 00:00:00 NR -18.42 68.27
SI 03:00:00 NR -18.96 68.36
SI 06:00:00 NR -19.50 68.50
SI 09:00:00 NR -20.07 68.77
SI 12:00:00 NR -20.65 69.10
SI 15:00:00 NR -21.23 69.49
SI 18:00:00 NR -21.79 69.92
SI 21:00:00 NR -22.32 70.35
SI 1867-01-17 00:00:00 NR -22.81 70.77
SI 03:00:00 NR -23.24 71.16
SI 06:00:00 NR -23.60 71.50
SI 09:00:00 NR -23.88 71.77
SI 12:00:00 NR -24.09 71.97
SI 15:00:00 NR -24.24 72.11
SI 18:00:00 NR -24.33 72.21
SI 21:00:00 NR -24.38 72.27
SI 1867-01-18 00:00:00 NR -24.41 72.29
SI 03:00:00 NR -24.41 72.30
SI 06:00:00 NR -24.40 72.30

Source Information

Agency Information
USA
TOKYO
CMA
HKO
NEWDELHI
REUNION WMO-Best-Tracks.txt:Line=693:xxxx867102
BOM
NADI
WELLINGTON
DS824
TD9636 cons_worldwide_trop_cyclone_18710101-19891231-005:Line=927
TD9635
NEUMANN
MLC

All available IBTrACS Data

SEASON BASIN SUBBASIN ISO_TIME_________ NATURE LAT LON WMO AGENCY DIST2LAND LANDFALL IFLAG USA SSHS REUNION LAT REUNION LON REUNION TYPE REUNION TNUM TD9636 LAT TD9636 LON TD9636 STAGE STORM SPEED STORM DIR
Year degrees north degrees east km km 1 degrees north degrees east 1 degrees north degrees east kts degrees
1867 SI MM 1867-01-11 06:00:00 NR -10.80 72.00 reunion 1851 1835 _____O____O___ -1 -10.50 72.30 99 9.90 -11.10 71.70 7 3 226
1867 SI MM 09:00:00 NR -10.91 71.89 1835 1820 _____P____P___ -1 -10.58 72.22 99 -11.23 71.56 7 3 225
1867 SI MM 12:00:00 NR -11.01 71.78 1820 1804 _____P____P___ -1 -10.67 72.14 99 -11.36 71.42 7 3 224
1867 SI MM 15:00:00 NR -11.12 71.68 1804 1789 _____P____P___ -1 -10.75 72.06 99 -11.48 71.30 7 3 222
1867 SI MM 18:00:00 NR -11.22 71.59 1789 1774 _____P____O___ -1 -10.84 71.98 99 -11.60 71.20 7 3 220
1867 SI MM 21:00:00 NR -11.32 71.51 1774 1758 _____P____P___ -1 -10.92 71.89 99 -11.71 71.13 7 3 217
1867 SI MM 1867-01-12 00:00:00 NR -11.42 71.43 1758 1752 _____P____P___ -1 -11.01 71.80 99 -11.83 71.06 7 3 217
1867 SI MM 03:00:00 NR -11.53 71.35 1743 1737 _____P____P___ -1 -11.11 71.70 99 -11.95 71.00 7 3 219
1867 SI MM 06:00:00 NR -11.65 71.25 reunion 1737 1706 _____O____O___ -1 -11.20 71.60 99 9.90 -12.10 70.90 7 3 222
1867 SI MM 09:00:00 NR -11.78 71.12 1706 1691 _____P____P___ -1 -11.30 71.49 99 -12.27 70.75 7 4 225
1867 SI MM 12:00:00 NR -11.93 70.97 1691 1660 _____P____P___ -1 -11.40 71.37 99 -12.46 70.57 7 4 224
1867 SI MM 15:00:00 NR -12.09 70.81 1660 1638 _____P____P___ -1 -11.51 71.25 99 -12.67 70.38 7 4 222
1867 SI MM 18:00:00 NR -12.26 70.66 1638 1614 _____P____O___ -1 -11.63 71.12 99 -12.90 70.20 7 5 218
1867 SI MM 21:00:00 NR -12.45 70.53 1614 1593 _____P____P___ -1 -11.75 70.99 99 -13.14 70.06 7 5 214
1867 SI MM 1867-01-13 00:00:00 NR -12.64 70.40 1593 1571 _____P____P___ -1 -11.89 70.86 99 -13.40 69.93 7 5 212
1867 SI MM 03:00:00 NR -12.85 70.27 1571 1550 _____P____P___ -1 -12.04 70.73 99 -13.66 69.82 7 5 210
1867 SI MM 06:00:00 NR -13.05 70.15 reunion 1550 1520 _____O____O___ -1 -12.20 70.60 99 9.90 -13.90 69.70 7 5 211
1867 SI MM 09:00:00 NR -13.25 70.02 1520 1499 _____P____P___ -1 -12.38 70.47 99 -14.11 69.57 7 5 212
1867 SI MM 12:00:00 NR -13.44 69.90 1499 1478 _____P____P___ -1 -12.57 70.35 99 -14.31 69.44 7 5 212
1867 SI MM 15:00:00 NR -13.64 69.77 1478 1457 _____P____P___ -1 -12.78 70.22 99 -14.51 69.32 7 5 211
1867 SI MM 18:00:00 NR -13.85 69.65 1448 1427 _____P____O___ -1 -13.00 70.10 99 -14.70 69.20 7 5 211
1867 SI MM 21:00:00 NR -14.04 69.53 1427 1407 _____P____P___ -1 -13.22 69.97 99 -14.85 69.09 7 4 211
1867 SI MM 1867-01-14 00:00:00 NR -14.23 69.42 1407 1386 _____P____P___ -1 -13.45 69.85 99 -15.01 68.99 7 5 208
1867 SI MM 03:00:00 NR -14.44 69.31 1386 1361 _____P____P___ -1 -13.67 69.72 99 -15.21 68.90 7 5 204
1867 SI MM 06:00:00 NR -14.70 69.20 reunion 1361 1335 _____O____O___ -1 -13.90 69.60 99 9.90 -15.50 68.80 7 6 203
1867 SI MM 09:00:00 NR -14.99 69.06 1335 1301 _____P____P___ -1 -14.07 69.46 99 -15.90 68.70 7 7 202
1867 SI MM 12:00:00 NR -15.33 68.93 1301 1271 _____P____P___ -1 -14.24 69.31 99 -16.38 68.60 7 7 200
1867 SI MM 15:00:00 NR -15.68 68.81 1271 1266 _____P____P___ -1 -14.40 69.17 99 -16.93 68.50 7 5 198
1867 SI MM 18:00:00 NR -15.83 68.76 1266 1252 _____P____O___ -1 -14.59 69.03 99 -17.50 68.40 7 2 206
1867 SI MM 21:00:00 NR -15.85 68.73 1257 1257 _____P________ -1 -14.79 68.90 99 7 1 338
1867 SI MM 1867-01-15 00:00:00 NR -15.70 68.71 1262 1262 _____P________ -1 -15.02 68.79 99 7 6 356
1867 SI MM 03:00:00 NR -15.29 68.68 1282 1257 _____P________ -1 -15.29 68.68 99 7 1 313
1867 SI MM 06:00:00 NR -15.60 68.60 reunion 1257 1228 _____O________ -1 -15.60 68.60 99 9.90 7 195
1867 SI MM 09:00:00 NR -15.98 68.49 1228 1200 _____P________ -1 -15.98 68.49 99 8 194
1867 SI MM 12:00:00 NR -16.41 68.39 1200 1173 _____P________ -1 -16.41 68.39 99 9 191
1867 SI MM 15:00:00 NR -16.87 68.31 1169 1154 _____P________ -1 -16.87 68.31 99 10 188
1867 SI MM 18:00:00 NR -17.37 68.26 1151 1125 _____P________ -1 -17.37 68.26 99 10 184
1867 SI MM 21:00:00 NR -17.89 68.24 1125 1119 _____P________ -1 -17.89 68.24 99 11 180
1867 SI MM 1867-01-16 00:00:00 NR -18.42 68.27 1121 1110 _____P________ -1 -18.42 68.27 99 11 174
1867 SI MM 03:00:00 NR -18.96 68.36 1119 1114 _____P________ -1 -18.96 68.36 99 11 169
1867 SI MM 06:00:00 NR -19.50 68.50 reunion 1122 1120 _____O________ -1 -19.50 68.50 99 9.90 12 161
1867 SI MM 09:00:00 NR -20.07 68.77 1147 1147 _____P________ -1 -20.07 68.77 99 13 154
1867 SI MM 12:00:00 NR -20.65 69.10 1177 1177 _____P________ -1 -20.65 69.10 99 13 150
1867 SI MM 15:00:00 NR -21.23 69.49 1220 1220 _____P________ -1 -21.23 69.49 99 14 146
1867 SI MM 18:00:00 NR -21.79 69.92 1266 1266 _____P________ -1 -21.79 69.92 99 14 144
1867 SI MM 21:00:00 NR -22.32 70.35 1313 1313 _____P________ -1 -22.32 70.35 99 13 142
1867 SI MM 1867-01-17 00:00:00 NR -22.81 70.77 1372 1372 _____P________ -1 -22.81 70.77 99 12 141
1867 SI MM 03:00:00 NR -23.24 71.16 1420 1420 _____P________ -1 -23.24 71.16 99 10 140
1867 SI MM 06:00:00 NR -23.60 71.50 reunion 1459 1459 _____O________ -1 -23.60 71.50 99 9.90 9 139
1867 SI MM 09:00:00 NR -23.88 71.77 1496 1496 _____P________ -1 -23.88 71.77 99 7 139
1867 SI MM 12:00:00 NR -24.09 71.97 1521 1521 _____P________ -1 -24.09 71.97 99 5 139
1867 SI MM 15:00:00 NR -24.24 72.11 1533 1533 _____P________ -1 -24.24 72.11 99 3 138
1867 SI MM 18:00:00 NR -24.33 72.21 1546 1546 _____P________ -1 -24.33 72.21 99 2 137
1867 SI MM 21:00:00 NR -24.38 72.27 1558 1558 _____P________ -1 -24.38 72.27 99 1 133
1867 SI MM 1867-01-18 00:00:00 NR -24.41 72.29 1558 1558 _____P________ -1 -24.41 72.29 99 0 128
1867 SI MM 03:00:00 NR -24.41 72.30 1558 1558 _____P________ -1 -24.41 72.30 99 0 0
1867 SI MM 06:00:00 NR -24.40 72.30 reunion 1558 _____O________ -1 -24.40 72.30 99 9.90 0 0